Time;durP1;ratioP1;P1;durP2;ratioP2;P2;SDS_P1;SDS_P2;PMS_P1;PMS_P2;Temp;Humidity;BMP_temperature;BMP_pressure;BME280_temperature;BME280_humidity;BME280_pressure;Samples;Min_cycle;Max_cycle;Signal;HPM_P1;HPM_P2
2022/05/07 00:00:39;;;;;;;105.88;48.53;;;;;;;;;;5057460;28;20083;-78
2022/05/07 00:03:05;;;;;;;119.03;52.35;;;;;;;;;;5059777;28;20127;-78
2022/05/07 00:05:31;;;;;;;122.65;52.58;;;;;;;;;;5079797;28;20097;-79
2022/05/07 00:07:57;;;;;;;117.47;51.97;;;;;;;;;;5076405;28;20055;-79
2022/05/07 00:10:24;;;;;;;129.55;53.20;;;;;;;;;;5092223;28;20043;-78
2022/05/07 00:12:50;;;;;;;103.80;48.38;;;;;;;;;;5084761;28;20044;-78
2022/05/07 00:15:16;;;;;;;124.75;52.42;;;;;;;;;;5076385;28;20564;-78
2022/05/07 00:20:27;;;;;;;124.22;51.58;;;;;;;;;;5076483;28;20032;-78
2022/05/07 00:22:54;;;;;;;116.60;52.15;;;14.40;99.90;;;;;;5079721;28;20071;-78
2022/05/07 00:25:20;;;;;;;119.55;50.45;;;;;;;;;;5075909;28;20047;-78
2022/05/07 00:27:46;;;;;;;116.57;49.28;;;;;;;;;;5074456;28;20064;-78
2022/05/07 00:30:12;;;;;;;113.90;49.85;;;;;;;;;;5058014;28;20089;-78
2022/05/07 00:32:38;;;;;;;110.43;48.80;;;;;;;;;;5091159;28;20043;-78
2022/05/07 00:35:05;;;;;;;112.68;47.72;;;15.70;99.90;;;;;;5092793;28;20469;-78
2022/05/07 00:37:31;;;;;;;110.22;46.05;;;14.30;99.90;;;;;;5086492;28;20529;-78
2022/05/07 00:39:58;;;;;;;106.13;47.35;;;;;;;;;;5072448;28;20090;-79
2022/05/07 00:42:24;;;;;;;98.30;47.28;;;;;;;;;;5079803;28;20044;-78
2022/05/07 00:44:51;;;;;;;115.85;48.60;;;;;;;;;;5092600;28;20130;-78
2022/05/07 00:47:28;;;;;;;104.20;47.65;;;14.70;99.90;;;;;;5071706;28;20514;-78
2022/05/07 00:51:33;;;;;;;103.00;46.08;;;14.60;99.90;;;;;;5091319;28;20093;-78
2022/05/07 00:52:46;;;;;;;104.28;46.45;;;14.40;99.90;;;;;;5075667;28;20127;-78
2022/05/07 00:55:12;;;;;;;106.88;46.47;;;;;;;;;;5079464;28;20040;-78
2022/05/07 00:57:39;;;;;;;102.82;45.30;;;14.40;99.90;;;;;;5078137;28;20035;-78
2022/05/07 01:00:06;;;;;;;99.85;45.80;;;14.50;99.90;;;;;;5075221;28;20032;-78
2022/05/07 01:02:33;;;;;;;104.60;47.42;;;;;;;;;;5077088;28;20493;-78
2022/05/07 01:04:59;;;;;;;107.05;47.10;;;;;;;;;;5075439;28;20114;-79
2022/05/07 01:07:25;;;;;;;104.57;47.67;;;;;;;;;;5063268;28;20472;-78
2022/05/07 01:09:51;;;;;;;104.25;47.75;;;;;;;;;;5080606;28;20039;-78
2022/05/07 01:12:17;;;;;;;100.80;44.80;;;;;;;;;;5083044;28;20070;-78
2022/05/07 01:14:43;;;;;;;96.80;42.08;;;;;;;;;;5073865;28;20040;-78
2022/05/07 01:17:10;;;;;;;87.95;41.72;;;;;;;;;;5074344;28;20063;-78
2022/05/07 01:19:36;;;;;;;94.13;44.97;;;;;;;;;;5082708;28;20043;-78
2022/05/07 01:22:02;;;;;;;95.35;43.70;;;14.30;99.90;;;;;;5067549;28;20041;-79
2022/05/07 01:24:28;;;;;;;83.57;43.80;;;;;;;;;;5067263;28;20055;-79
2022/05/07 01:26:54;;;;;;;94.13;43.47;;;;;;;;;;5087049;28;20029;-78
2022/05/07 01:29:20;;;;;;;88.85;42.30;;;;;;;;;;5089153;28;20097;-78
2022/05/07 01:31:46;;;;;;;104.72;45.97;;;;;;;;;;5086261;28;20032;-72
2022/05/07 01:34:12;;;;;;;89.65;42.05;;;;;;;;;;5056688;28;20041;-73
2022/05/07 01:36:38;;;;;;;90.75;42.20;;;;;;;;;;5076420;28;20043;-72
2022/05/07 01:39:05;;;;;;;90.45;44.20;;;;;;;;;;5069717;28;20087;-72
2022/05/07 01:41:31;;;;;;;86.93;42.58;;;;;;;;;;5069913;28;20139;-73
2022/05/07 01:43:58;;;;;;;91.45;43.92;;;;;;;;;;5090717;28;20396;-72
2022/05/07 01:49:08;;;;;;;89.28;43.42;;;;;;;;;;5075464;28;20101;-72
2022/05/07 01:51:35;;;;;;;87.25;42.83;;;;;;;;;;5074256;28;20033;-72
2022/05/07 01:54:01;;;;;;;91.30;42.80;;;;;;;;;;5091283;28;20047;-72
2022/05/07 01:56:27;;;;;;;88.55;42.83;;;;;;;;;;5085204;28;20381;-73
2022/05/07 01:58:53;;;;;;;89.82;45.10;;;;;;;;;;5057477;28;20124;-73
2022/05/07 02:01:20;;;;;;;91.00;44.85;;;;;;;;;;5072674;28;20040;-72
2022/05/07 02:03:46;;;;;;;87.93;42.83;;;;;;;;;;5077590;28;20047;-73
2022/05/07 02:06:12;;;;;;;92.10;44.38;;;;;;;;;;5073196;28;20037;-72
2022/05/07 02:08:38;;;;;;;85.72;42.92;;;;;;;;;;5061907;28;20036;-73
2022/05/07 02:11:04;;;;;;;87.03;44.63;;;;;;;;;;5091002;28;20526;-72
2022/05/07 02:13:30;;;;;;;99.38;46.90;;;;;;;;;;5089826;28;20483;-73
2022/05/07 02:15:57;;;;;;;78.80;39.92;;;;;;;;;;5072091;28;20400;-73
2022/05/07 02:18:22;;;;;;;86.95;42.35;;;13.30;99.90;;;;;;5066470;28;20040;-72
2022/05/07 02:20:49;;;;;;;100.45;44.10;;;;;;;;;;5074182;28;20039;-72
2022/05/07 02:23:16;;;;;;;78.85;41.95;;;14.20;99.90;;;;;;5056685;28;20032;-72
2022/05/07 02:25:42;;;;;;;98.25;44.33;;;;;;;;;;5072717;28;20107;-72
2022/05/07 02:28:08;;;;;;;86.65;43.60;;;;;;;;;;5081786;28;20041;-72
2022/05/07 02:30:34;;;;;;;78.32;39.95;;;;;;;;;;5088196;28;20040;-72
2022/05/07 02:33:00;;;;;;;85.30;42.60;;;;;;;;;;5058514;28;20524;-72
2022/05/07 02:35:27;;;;;;;86.88;41.40;;;;;;;;;;5056591;28;20472;-73
2022/05/07 02:37:54;;;;;;;85.97;42.20;;;;;;;;;;5059628;28;20044;-73
2022/05/07 02:40:20;;;;;;;81.47;42.90;;;;;;;;;;5072627;28;20552;-73
2022/05/07 02:42:46;;;;;;;89.95;44.25;;;;;;;;;;5085516;28;20174;-73
2022/05/07 02:45:13;;;;;;;85.75;43.78;;;13.90;99.90;;;;;;5069770;28;20472;-73
2022/05/07 02:47:40;;;;;;;96.53;45.85;;;13.80;99.90;;;;;;5088625;28;20048;-73
2022/05/07 02:50:07;;;;;;;85.85;43.80;;;;;;;;;;5072026;28;20485;-73
2022/05/07 02:52:33;;;;;;;85.60;44.63;;;;;;;;;;5073043;28;20032;-73
2022/05/07 02:55:07;;;;;;;90.45;44.08;;;13.90;99.90;;;;;;5056599;28;20040;-72
2022/05/07 02:57:34;;;;;;;82.13;44.60;;;;;;;;;;5071807;28;20040;-72
2022/05/07 03:00:00;;;;;;;81.75;41.88;;;;;;;;;;5090147;28;20043;-72
2022/05/07 03:02:26;;;;;;;94.53;43.97;;;;;;;;;;5087163;28;20058;-73
2022/05/07 03:04:53;;;;;;;84.45;43.05;;;13.60;99.90;;;;;;5092899;28;20043;-72
2022/05/07 03:07:19;;;;;;;94.45;45.25;;;;;;;;;;5077495;28;20496;-73
2022/05/07 03:09:45;;;;;;;84.55;44.58;;;13.60;99.90;;;;;;5084934;28;20046;-73
2022/05/07 03:12:11;;;;;;;80.22;42.00;;;;;;;;;;5054988;28;20434;-73
2022/05/07 03:14:37;;;;;;;74.40;41.35;;;;;;;;;;5087036;28;20043;-72
2022/05/07 03:17:04;;;;;;;85.55;44.72;;;;;;;;;;5086761;28;20120;-72
2022/05/07 03:19:30;;;;;;;85.60;43.85;;;;;;;;;;5058527;28;20040;-72
2022/05/07 03:21:56;;;;;;;82.68;40.22;;;;;;;;;;5072042;28;20118;-72
2022/05/07 03:24:22;;;;;;;75.97;41.40;;;;;;;;;;5083903;28;20039;-72
2022/05/07 03:26:48;;;;;;;78.28;41.72;;;;;;;;;;5088739;28;20085;-72
2022/05/07 03:29:14;;;;;;;78.97;41.78;;;;;;;;;;5054020;28;20036;-72
2022/05/07 03:31:40;;;;;;;85.55;43.53;;;;;;;;;;5071664;28;20051;-72
2022/05/07 03:34:07;;;;;;;82.22;42.05;;;13.60;99.90;;;;;;5063853;28;20101;-73
2022/05/07 03:36:33;;;;;;;78.20;41.17;;;;;;;;;;5089440;28;20045;-72
2022/05/07 03:38:59;;;;;;;79.45;42.85;;;;;;;;;;5074716;28;20438;-72
2022/05/07 03:41:25;;;;;;;76.63;41.25;;;14.60;99.90;;;;;;5072722;28;20068;-72
2022/05/07 03:43:51;;;;;;;81.05;41.30;;;;;;;;;;5082952;28;20071;-72
2022/05/07 03:46:17;;;;;;;72.57;38.13;;;;;;;;;;5069787;28;20071;-72
2022/05/07 03:48:43;;;;;;;73.32;39.38;;;;;;;;;;5072614;28;20043;-72
2022/05/07 03:51:09;;;;;;;81.57;41.47;;;;;;;;;;5084194;28;20068;-72
2022/05/07 03:53:39;;;;;;;85.68;43.25;;;;;;;;;;5088479;28;20036;-72
2022/05/07 03:56:08;;;;;;;83.53;44.17;;;13.40;99.90;;;;;;5088073;28;20047;-72
2022/05/07 03:58:34;;;;;;;80.78;44.05;;;13.60;99.90;;;;;;5067714;28;20140;-72
2022/05/07 04:01:01;;;;;;;79.88;42.75;;;;;;;;;;5086483;28;20086;-72
2022/05/07 04:03:28;;;;;;;83.13;42.25;;;13.70;99.90;;;;;;5076489;28;20040;-72
2022/05/07 04:05:55;;;;;;;82.75;43.22;;;;;;;;;;5071287;28;20040;-72
2022/05/07 04:08:21;;;;;;;77.57;41.08;;;;;;;;;;5082396;28;20119;-72
2022/05/07 04:10:47;;;;;;;84.47;43.88;;;;;;;;;;5088328;28;20036;-72
2022/05/07 04:13:14;;;;;;;82.93;42.67;;;;;;;;;;5061613;28;20481;-72
2022/05/07 04:15:40;;;;;;;83.53;41.85;;;;;;;;;;5074698;28;20461;-72
2022/05/07 04:18:09;;;;;;;84.50;43.55;;;;;;;;;;5065551;28;20065;-73
2022/05/07 04:20:36;;;;;;;81.68;42.38;;;;;;;;;;5075255;28;20051;-72
2022/05/07 04:23:02;;;;;;;85.97;43.92;;;;;;;;;;5091187;28;20040;-72
2022/05/07 04:25:28;;;;;;;79.30;41.83;;;;;;;;;;5093306;28;20028;-72
2022/05/07 04:27:55;;;;;;;81.97;42.58;;;;;;;;;;5088057;28;20128;-73
2022/05/07 04:30:21;;;;;;;78.50;41.83;;;;;;;;;;5067813;28;20067;-72
2022/05/07 04:32:47;;;;;;;74.97;41.95;;;;;;;;;;5071074;28;20040;-72
2022/05/07 04:35:13;;;;;;;83.32;42.45;;;;;;;;;;5057951;28;20032;-72
2022/05/07 04:37:40;;;;;;;81.30;42.85;;;;;;;;;;5057419;28;20434;-71
2022/05/07 04:40:06;;;;;;;74.57;39.47;;;;;;;;;;5074630;28;20048;-71
2022/05/07 04:42:32;;;;;;;80.43;40.53;;;;;;;;;;5090990;28;20128;-71
2022/05/07 04:44:58;;;;;;;73.30;39.95;;;;;;;;;;5074175;28;20120;-71
2022/05/07 04:47:24;;;;;;;76.90;41.47;;;;;;;;;;5074405;28;20036;-72
2022/05/07 04:49:50;;;;;;;83.05;43.15;;;;;;;;;;5090426;28;20062;-72
2022/05/07 04:52:16;;;;;;;86.25;44.45;;;;;;;;;;5079785;28;20032;-72
2022/05/07 04:54:42;;;;;;;81.93;41.00;;;;;;;;;;5090002;28;20368;-72
2022/05/07 04:57:09;;;;;;;85.55;45.38;;;;;;;;;;5060074;28;20441;-72
2022/05/07 04:59:35;;;;;;;86.13;44.97;;;;;;;;;;5077827;28;20091;-72
2022/05/07 05:02:01;;;;;;;93.20;45.08;;;;;;;;;;5071723;28;20152;-72
2022/05/07 05:04:27;;;;;;;82.32;45.70;;;;;;;;;;5082900;28;20375;-72
2022/05/07 05:06:53;;;;;;;87.05;44.83;;;;;;;;;;5083045;28;20039;-72
2022/05/07 05:09:19;;;;;;;89.32;44.83;;;;;;;;;;5081889;28;20112;-72
2022/05/07 05:11:45;;;;;;;95.85;45.45;;;;;;;;;;5063089;28;20040;-72
2022/05/07 05:16:56;;;;;;;89.65;45.65;;;;;;;;;;5092196;28;20044;-72
2022/05/07 05:19:22;;;;;;;87.30;46.42;;;;;;;;;;5081119;28;20037;-73
2022/05/07 05:21:48;;;;;;;96.93;46.80;;;;;;;;;;5065127;28;20044;-72
2022/05/07 05:24:14;;;;;;;86.43;46.08;;;;;;;;;;5099397;28;20062;-72
2022/05/07 05:26:40;;;;;;;94.03;46.50;;;;;;;;;;5072862;28;20761;-73
2022/05/07 05:29:06;;;;;;;92.57;48.60;;;;;;;;;;5058174;28;20054;-73
2022/05/07 05:31:32;;;;;;;103.47;48.67;;;;;;;;;;5063333;28;20032;-73
2022/05/07 05:33:59;;;;;;;87.32;45.80;;;;;;;;;;5085337;28;20546;-73
2022/05/07 05:36:26;;;;;;;98.03;50.05;;;;;;;;;;5067058;28;20119;-74
2022/05/07 05:38:53;;;;;;;99.57;47.60;;;;;;;;;;5087030;28;20106;-73
2022/05/07 05:41:20;;;;;;;107.07;51.03;;;;;;;;;;5074414;28;20067;-72
2022/05/07 05:43:46;;;;;;;117.15;52.80;;;;;;;;;;5074931;28;20058;-71
2022/05/07 05:46:14;;;;;;;108.97;50.55;;;;;;;;;;5073401;28;20043;-72
2022/05/07 05:48:40;;;;;;;111.88;53.10;;;;;;;;;;5074962;28;20040;-72
2022/05/07 05:51:07;;;;;;;104.55;52.05;;;;;;;;;;5069983;28;20036;-72
2022/05/07 05:53:33;;;;;;;112.75;53.25;;;;;;;;;;5073358;28;20377;-72
2022/05/07 05:56:00;;;;;;;128.00;56.75;;;;;;;;;;5056567;28;20358;-73
2022/05/07 05:58:33;;;;;;;124.70;56.60;;;;;;;;;;5056154;28;20036;-72
2022/05/07 06:00:59;;;;;;;;;;;13.90;99.90;;;;;;5085708;28;20040;-73
2022/05/07 06:03:25;;;;;;;115.65;54.08;;;;;;;;;;5091137;28;19922;-78
2022/05/07 06:05:52;;;;;;;113.25;56.00;;;;;;;;;;5079735;28;20093;-77
2022/05/07 06:08:18;;;;;;;127.25;57.58;;;;;;;;;;5075235;28;20040;-77
2022/05/07 06:10:44;;;;;;;112.32;53.42;;;;;;;;;;5084287;28;20051;-77
2022/05/07 06:13:10;;;;;;;118.35;56.83;;;;;;;;;;5078954;28;20032;-77
2022/05/07 06:15:38;;;;;;;126.80;59.08;;;;;;;;;;5085963;28;20039;-77
2022/05/07 06:18:04;;;;;;;118.80;57.05;;;;;;;;;;5090732;28;20561;-78
2022/05/07 06:20:30;;;;;;;108.25;55.92;;;;;;;;;;5083776;28;20024;-78
2022/05/07 06:22:59;;;;;;;120.22;58.08;;;14.10;99.90;;;;;;5072529;28;20036;-77
2022/05/07 06:28:10;;;;;;;129.93;63.92;;;;;;;;;;5075794;28;20040;-78
2022/05/07 06:30:37;;;;;;;140.40;65.32;;;;;;;;;;5064022;28;20111;-78
2022/05/07 06:33:03;;;;;;;151.48;67.43;;;;;;;;;;5082584;28;20391;-79
2022/05/07 06:35:29;;;;;;;159.70;70.00;;;;;;;;;;5075752;28;20564;-78
2022/05/07 06:37:55;;;;;;;144.60;66.25;;;;;;;;;;5072330;28;20365;-78
2022/05/07 06:40:21;;;;;;;151.13;65.93;;;;;;;;;;5077693;28;20115;-73
2022/05/07 06:42:48;;;;;;;156.77;67.53;;;;;;;;;;5085365;28;20035;-73
2022/05/07 06:45:14;;;;;;;153.05;66.00;;;;;;;;;;5083958;28;20036;-74
2022/05/07 06:47:40;;;;;;;149.95;65.75;;;;;;;;;;5090369;28;20365;-73
2022/05/07 06:50:07;;;;;;;141.43;64.28;;;;;;;;;;5083363;28;20047;-74
2022/05/07 06:52:44;;;;;;;146.02;64.68;;;14.10;99.90;;;;;;5072262;28;20048;-73
2022/05/07 06:55:18;;;;;;;147.55;63.25;;;14.30;99.90;;;;;;5078803;28;20123;-73
2022/05/07 06:57:45;;;;;;;150.52;64.88;;;;;;;;;;5071962;28;20048;-72
2022/05/07 07:00:12;;;;;;;148.95;67.15;;;;;;;;;;5060809;28;20044;-73
2022/05/07 07:02:38;;;;;;;115.70;56.03;;;;;;;;;;5089706;28;20130;-73
2022/05/07 07:05:05;;;;;;;134.95;59.97;;;;;;;;;;5080426;28;20054;-73
2022/05/07 07:07:31;;;;;;;148.50;62.35;;;14.30;99.90;;;;;;5071635;28;20085;-73
2022/05/07 07:09:58;;;;;;;147.32;64.70;;;;;;;;;;5074466;28;20036;-73
2022/05/07 07:12:24;;;;;;;148.27;63.50;;;;;;;;;;5083857;28;20039;-73
2022/05/07 07:14:50;;;;;;;147.98;62.13;;;;;;;;;;5061141;28;20040;-73
2022/05/07 07:17:17;;;;;;;159.32;66.70;;;;;;;;;;5106850;28;20527;-73
2022/05/07 07:19:43;;;;;;;151.80;63.50;;;;;;;;;;5082640;28;20036;-73
2022/05/07 07:22:10;;;;;;;157.25;66.70;;;;;;;;;;5075660;28;20048;-73
2022/05/07 07:24:36;;;;;;;150.02;62.03;;;;;;;;;;5059304;28;20032;-73
2022/05/07 07:27:04;;;;;;;154.57;64.40;;;14.40;99.90;;;;;;5069287;28;20032;-73
2022/05/07 07:29:30;;;;;;;145.90;63.63;;;;;;;;;;5057249;28;20036;-73
2022/05/07 07:31:56;;;;;;;155.18;65.32;;;;;;;;;;5060700;28;20400;-73
2022/05/07 07:34:22;;;;;;;148.38;63.72;;;;;;;;;;5089524;28;20043;-74
2022/05/07 07:36:52;;;;;;;143.93;64.10;;;;;;;;;;5076398;28;20033;-74
2022/05/07 07:39:19;;;;;;;152.30;63.80;;;;;;;;;;5062020;28;20076;-74
2022/05/07 07:41:45;;;;;;;143.27;61.88;;;;;;;;;;5077515;28;20115;-74
2022/05/07 07:44:12;;;;;;;153.80;64.40;;;;;;;;;;5082410;28;20383;-75
2022/05/07 07:49:23;;;;;;;167.88;66.72;;;;;;;;;;5090213;28;20772;-74
2022/05/07 07:51:50;;;;;;;141.95;60.60;;;;;;;;;;5081882;28;20037;-73
2022/05/07 07:54:16;;;;;;;148.68;58.53;;;15.20;99.90;;;;;;5076361;28;20488;-73
2022/05/07 07:56:45;;;;;;;131.38;53.67;;;;;;;;;;5059491;28;20035;-73
2022/05/07 07:59:11;;;;;;;123.18;52.10;;;;;;;;;;5092811;28;20040;-73
2022/05/07 08:01:37;;;;;;;113.63;50.42;;;;;;;;;;5083016;28;20134;-73
2022/05/07 08:04:04;;;;;;;98.88;45.60;;;;;;;;;;5068723;28;20044;-73
2022/05/07 08:06:31;;;;;;;98.93;45.13;;;;;;;;;;5080616;28;20123;-73
2022/05/07 08:11:42;;;;;;;102.68;44.33;;;;;;;;;;5082566;28;20043;-73
2022/05/07 08:14:14;;;;;;;107.45;46.67;;;;;;;;;;5077370;28;20044;-73
2022/05/07 08:16:44;;;;;;;;;;;14.50;99.90;;;;;;5062721;28;20083;-74
2022/05/07 08:19:10;;;;;;;109.97;48.00;;;;;;;;;;5075163;28;19920;-73
2022/05/07 08:21:36;;;;;;;112.55;49.95;;;;;;;;;;5068220;28;20530;-73
2022/05/07 08:24:02;;;;;;;110.60;52.58;;;;;;;;;;5084876;28;20032;-73
2022/05/07 08:26:28;;;;;;;119.97;51.70;;;;;;;;;;5061843;28;20036;-73
2022/05/07 08:28:55;;;;;;;119.95;52.90;;;;;;;;;;5058467;28;20052;-73
2022/05/07 08:31:24;;;;;;;97.97;46.95;;;;;;;;;;5074759;28;20040;-73
2022/05/07 08:33:54;;;;;;;106.32;46.13;;;14.80;99.90;;;;;;5074858;28;20044;-73
2022/05/07 08:36:20;;;;;;;102.60;44.25;;;;;;;;;;5074561;28;20076;-72
2022/05/07 08:38:46;;;;;;;104.68;45.63;;;;;;;;;;5057899;28;20048;-72
2022/05/07 08:41:13;;;;;;;104.97;46.75;;;;;;;;;;5075893;28;20040;-73
2022/05/07 08:43:43;;;;;;;99.20;46.20;;;15.00;99.90;;;;;;5081434;28;20040;-73
2022/05/07 08:46:10;;;;;;;89.45;43.97;;;14.80;99.90;;;;;;5084475;28;20123;-74
2022/05/07 08:48:36;;;;;;;84.78;40.83;;;;;;;;;;5075582;28;20480;-74
2022/05/07 08:51:04;;;;;;;87.00;41.28;;;;;;;;;;5082387;28;20568;-74
2022/05/07 08:53:30;;;;;;;99.97;45.35;;;;;;;;;;5078042;28;20479;-74
2022/05/07 08:55:56;;;;;;;100.32;46.33;;;;;;;;;;5082725;28;20040;-74
2022/05/07 08:58:23;;;;;;;115.50;48.63;;;;;;;;;;5073918;28;20051;-74
2022/05/07 09:00:49;;;;;;;103.95;48.90;;;;;;;;;;5079067;28;20126;-74
2022/05/07 09:03:16;;;;;;;114.65;49.63;;;;;;;;;;5056042;28;20454;-74
2022/05/07 09:05:43;;;;;;;105.55;49.35;;;;;;;;;;5061090;28;20590;-74
2022/05/07 09:08:11;;;;;;;100.93;47.13;;;;;;;;;;5092490;28;20047;-74
2022/05/07 09:10:39;;;;;;;111.88;46.55;;;;;;;;;;5076699;28;20093;-74
2022/05/07 09:13:10;;;;;;;114.13;47.53;;;15.40;99.90;;;;;;5067590;28;20052;-72
2022/05/07 09:15:57;;;;;;;110.82;49.47;;;15.40;99.90;;;;;;5100563;28;20098;-72
2022/05/07 09:18:24;;;;;;;111.35;47.53;;;;;;;;;;5059707;28;20086;-73
2022/05/07 09:21:26;;;;;;;102.78;44.78;;;15.30;99.90;;;;;;5059334;28;20497;-72
2022/05/07 09:23:58;;;;;;;82.63;37.05;;;;;;;;;;5075532;28;20114;-72
2022/05/07 09:26:28;;;;;;;73.50;36.45;;;14.70;99.90;;;;;;5079853;28;20032;-73
2022/05/07 09:28:54;;;;;;;78.20;34.25;;;;;;;;;;5059111;28;20070;-74
2022/05/07 09:31:23;;;;;;;77.03;34.20;;;;;;;;;;5064060;28;20040;-74
2022/05/07 09:33:49;;;;;;;83.15;36.60;;;;;;;;;;5079450;28;20064;-73
2022/05/07 09:36:15;;;;;;;88.07;39.22;;;;;;;;;;5075992;28;20043;-74
2022/05/07 09:38:43;;;;;;;94.15;42.47;;;;;;;;;;5076677;28;20040;-73
2022/05/07 09:41:19;;;;;;;106.25;45.38;;;15.00;99.90;;;;;;5079643;28;20389;-72
2022/05/07 09:43:48;;;;;;;96.50;42.35;;;15.20;99.90;;;;;;5062172;28;20048;-73
2022/05/07 09:46:14;;;;;;;98.82;43.35;;;;;;;;;;5083635;28;20118;-73
2022/05/07 09:48:40;;;;;;;109.82;48.50;;;;;;;;;;5074108;28;20047;-70
2022/05/07 09:51:06;;;;;;;102.57;43.72;;;;;;;;;;5077485;28;20052;-72
2022/05/07 09:59:02;;;;;;;99.05;42.47;;;15.60;99.90;;;;;;5081503;28;20048;-72
2022/05/07 10:01:31;;;;;;;104.82;43.45;;;15.50;99.90;;;;;;5066126;28;20131;-72
2022/05/07 10:04:23;;;;;;;89.78;39.47;;;15.40;99.90;;;;;;5081425;28;20093;-72
2022/05/07 10:07:08;;;;;;;72.03;32.83;;;;;;;;;;5096960;28;20072;-73
2022/05/07 10:09:43;;;;;;;57.15;24.98;;;15.80;99.90;;;;;;5081513;28;20068;-73
2022/05/07 10:12:16;;;;;;;36.75;16.02;;;16.10;99.90;;;;;;5074479;28;20060;-72
2022/05/07 10:14:42;;;;;;;26.63;12.55;;;;;;;;;;5075278;28;20484;-72
2022/05/07 10:17:13;;;;;;;26.67;13.68;;;16.10;99.90;;;;;;5081713;28;20094;-72
2022/05/07 10:19:39;;;;;;;26.80;12.68;;;16.20;99.80;;;;;;5076394;28;20087;-72
2022/05/07 10:22:18;;;;;;;40.22;14.02;;;16.40;99.70;;;;;;5074571;28;20032;-72
2022/05/07 10:24:45;;;;;;;26.70;12.07;;;16.10;99.20;;;;;;5059044;28;20089;-72
2022/05/07 10:27:30;;;;;;;26.42;12.27;;;16.00;98.60;;;;;;5075172;28;20048;-73
2022/05/07 10:30:16;;;;;;;32.75;14.23;;;16.20;99.30;;;;;;5084435;28;20039;-72
2022/05/07 10:33:03;;;;;;;28.98;14.55;;;15.80;99.70;;;;;;5081552;28;20048;-72
2022/05/07 10:35:52;;;;;;;30.23;14.38;;;16.00;99.00;;;;;;5081331;28;20119;-72
2022/05/07 10:38:25;;;;;;;33.80;16.75;;;;;;;;;;5079405;28;20044;-73
2022/05/07 10:40:51;;;;;;;43.47;21.80;;;;;;;;;;5079816;28;20190;-72
2022/05/07 10:43:30;;;;;;;47.72;24.00;;;;;;;;;;5065825;28;20511;-73
2022/05/07 10:46:09;;;;;;;46.65;23.77;;;15.80;99.90;;;;;;5084050;28;20452;-72
2022/05/07 10:48:57;;;;;;;44.55;21.42;;;15.70;99.40;;;;;;5081649;28;20484;-72
2022/05/07 10:51:29;;;;;;;46.83;23.48;;;15.50;99.90;;;;;;5092459;28;20075;-72
2022/05/07 10:53:57;;;;;;;;;;;;;;;;;;5071189;28;20069;-72
2022/05/07 10:56:26;;;;;;;48.30;22.33;;;;;;;;;;5092150;28;19916;-72
2022/05/07 10:58:57;;;;;;;48.08;21.98;;;16.10;99.90;;;;;;5080602;28;20052;-72
2022/05/07 11:01:24;;;;;;;47.03;21.27;;;16.10;99.90;;;;;;5080385;28;20033;-71
2022/05/07 11:04:03;;;;;;;40.50;20.50;;;16.10;99.90;;;;;;5096697;28;20404;-73
2022/05/07 11:06:29;;;;;;;40.38;20.10;;;;;;;;;;5073961;28;20036;-71
2022/05/07 11:08:55;;;;;;;47.88;19.77;;;;;;;;;;5080888;28;20109;-73
2022/05/07 11:11:24;;;;;;;41.50;20.15;;;;;;;;;;5078199;28;20036;-73
2022/05/07 11:13:56;;;;;;;42.90;21.20;;;16.90;99.90;;;;;;5065307;28;20108;-73
2022/05/07 11:16:23;;;;;;;48.75;20.92;;;16.60;99.30;;;;;;5086354;28;20044;-73
2022/05/07 11:18:51;;;;;;;39.25;17.67;;;16.50;99.30;;;;;;5080216;28;20044;-72
2022/05/07 11:21:25;;;;;;;33.75;16.27;;;17.10;99.30;;;;;;5080490;28;20036;-72
2022/05/07 11:23:55;;;;;;;31.67;14.25;;;17.30;97.50;;;;;;5082052;28;20040;-72
2022/05/07 11:26:21;;;;;;;26.15;13.65;;;;;;;;;;5088656;28;20048;-72
2022/05/07 11:28:48;;;;;;;29.23;14.15;;;17.50;97.60;;;;;;5085269;28;20040;-72
2022/05/07 11:31:29;;;;;;;32.85;14.50;;;17.90;99.90;;;;;;5081576;28;20040;-72
2022/05/07 11:34:10;;;;;;;38.55;19.58;;;17.20;97.70;;;;;;5080698;28;20040;-71
2022/05/07 11:36:37;;;;;;;40.92;20.63;;;;;;;;;;5079439;28;20487;-72
2022/05/07 11:39:04;;;;;;;42.22;18.92;;;;;;;;;;5080639;28;20036;-71
2022/05/07 11:41:30;;;;;;;43.75;19.73;;;;;;;;;;5063958;28;20047;-72
2022/05/07 11:46:52;;;;;;;43.22;20.70;;;17.60;97.20;;;;;;5079160;28;20055;-72
2022/05/07 11:49:34;;;;;;;41.47;19.98;;;17.50;97.30;;;;;;5082878;28;20039;-72
2022/05/07 11:52:04;;;;;;;39.00;19.23;;;16.60;96.70;;;;;;5079453;28;20047;-72
2022/05/07 11:54:31;;;;;;;43.53;21.25;;;;;;;;;;5060068;28;20040;-72
2022/05/07 11:56:59;;;;;;;47.22;21.90;;;;;;;;;;5078304;28;20051;-73
2022/05/07 11:59:25;;;;;;;39.25;20.05;;;;;;;;;;5055578;28;20044;-73
2022/05/07 12:01:51;;;;;;;41.67;19.75;;;;;;;;;;5075479;28;20464;-73
2022/05/07 12:04:17;;;;;;;41.22;19.30;;;;;;;;;;5073965;28;20500;-73
2022/05/07 12:06:56;;;;;;;37.97;19.70;;;16.60;97.40;;;;;;5079415;28;20047;-72
2022/05/07 12:09:22;;;;;;;37.53;18.00;;;;;;;;;;5065996;28;20110;-72
2022/05/07 12:11:49;;;;;;;40.33;18.67;;;;;;;;;;5074743;28;20040;-73
2022/05/07 12:14:15;;;;;;;39.05;19.98;;;;;;;;;;5088312;28;20066;-73
2022/05/07 12:19:29;;;;;;;39.13;20.13;;;;;;;;;;5087134;28;20046;-72
2022/05/07 12:30:12;;;;;;;28.92;15.82;;;17.80;99.90;;;;;;5064853;28;20044;-72
2022/05/07 12:32:40;;;;;;;27.67;14.10;;;;;;;;;;5074025;28;20131;-73
2022/05/07 12:35:06;;;;;;;29.73;13.40;;;16.50;99.90;;;;;;5085085;28;20476;-73
2022/05/07 12:37:33;;;;;;;31.35;14.45;;;;;;;;;;5077158;28;20041;-73
2022/05/07 12:39:59;;;;;;;33.42;15.60;;;;;;;;;;5074502;28;20166;-73
2022/05/07 12:42:25;;;;;;;30.10;14.90;;;;;;;;;;5075855;28;20037;-73
2022/05/07 12:44:51;;;;;;;29.83;14.88;;;;;;;;;;5077101;28;20054;-73
2022/05/07 12:47:18;;;;;;;28.40;14.70;;;;;;;;;;5061271;28;20024;-73
2022/05/07 12:49:44;;;;;;;27.60;13.82;;;;;;;;;;5085095;28;20129;-73
2022/05/07 12:52:10;;;;;;;22.83;12.63;;;;;;;;;;5067948;28;20429;-73
2022/05/07 12:54:37;;;;;;;22.75;12.60;;;19.40;97.80;;;;;;5078120;28;20049;-73
2022/05/07 12:57:04;;;;;;;28.70;12.07;;;;;;;;;;5074329;28;20106;-73
2022/05/07 12:59:30;;;;;;;25.13;11.88;;;;;;;;;;5074156;28;20040;-73
2022/05/07 13:01:57;;;;;;;20.67;11.50;;;;;;;;;;5057473;28;20102;-73
2022/05/07 13:04:24;;;;;;;19.23;10.82;;;;;;;;;;5067588;28;20090;-73
2022/05/07 13:06:51;;;;;;;19.77;10.52;;;18.40;99.40;;;;;;5075348;28;20504;-73
2022/05/07 13:09:18;;;;;;;30.40;11.80;;;;;;;;;;5075767;28;20048;-73
2022/05/07 13:11:44;;;;;;;24.23;11.77;;;;;;;;;;5074643;28;20075;-73
2022/05/07 13:14:10;;;;;;;24.02;11.13;;;17.70;98.40;;;;;;5088800;28;20040;-73
2022/05/07 13:16:36;;;;;;;24.95;11.93;;;;;;;;;;5077998;28;20051;-73
2022/05/07 13:19:03;;;;;;;28.25;13.00;;;;;;;;;;5091428;28;20040;-73
2022/05/07 13:21:29;;;;;;;27.80;13.80;;;;;;;;;;5065311;28;20475;-73
2022/05/07 13:23:55;;;;;;;24.08;11.30;;;;;;;;;;5073037;28;20028;-73
2022/05/07 13:26:21;;;;;;;23.90;11.55;;;;;;;;;;5066835;28;20042;-73
2022/05/07 13:28:47;;;;;;;33.45;14.77;;;;;;;;;;5088104;28;20067;-73
2022/05/07 13:31:14;;;;;;;26.55;13.60;;;;;;;;;;5056344;28;21495;-73
2022/05/07 13:33:41;;;;;;;23.15;11.82;;;;;;;;;;5085041;28;20043;-73
2022/05/07 13:36:06;;;;;;;24.45;10.00;;;18.70;99.90;;;;;;5074572;28;20037;-73
2022/05/07 13:38:32;;;;;;;20.27;10.25;;;;;;;;;;5068777;28;20043;-73
2022/05/07 13:40:59;;;;;;;17.95;9.63;;;17.60;95.80;;;;;;5057788;28;20051;-73
2022/05/07 13:43:25;;;;;;;17.00;9.23;;;;;;;;;;5084532;28;20048;-73
2022/05/07 13:45:51;;;;;;;15.73;9.68;;;;;;;;;;5064988;28;20043;-73
2022/05/07 13:48:18;;;;;;;17.08;9.75;;;;;;;;;;5077648;28;20045;-73
2022/05/07 13:50:44;;;;;;;16.40;9.55;;;;;;;;;;5073620;28;20139;-72
2022/05/07 13:53:10;;;;;;;16.02;9.30;;;16.00;99.90;;;;;;5058144;28;20072;-73
2022/05/07 13:55:37;;;;;;;18.10;9.55;;;;;;;;;;5080809;28;20444;-73
2022/05/07 13:58:04;;;;;;;15.88;9.18;;;;;;;;;;5094186;28;20045;-73
2022/05/07 14:00:32;;;;;;;12.95;8.18;;;;;;;;;;5072961;28;20059;-73
2022/05/07 14:02:57;;;;;;;13.35;7.05;;;18.20;99.90;;;;;;5076301;28;20123;-73
2022/05/07 14:05:28;;;;;;;13.00;7.22;;;;;;;;;;5090743;28;20101;-73
2022/05/07 14:07:54;;;;;;;14.07;6.78;;;;;;;;;;5094793;28;20447;-73
2022/05/07 14:10:20;;;;;;;9.57;6.20;;;;;;;;;;5074344;28;20392;-73
2022/05/07 14:12:46;;;;;;;14.80;5.57;;;;;;;;;;5074050;28;20071;-73
2022/05/07 14:15:13;;;;;;;12.25;5.40;;;;;;;;;;5091043;28;20502;-73
2022/05/07 14:17:38;;;;;;;7.72;4.43;;;18.40;99.10;;;;;;5090875;28;20043;-73
2022/05/07 14:20:06;;;;;;;11.05;4.22;;;17.40;98.10;;;;;;5080705;28;20036;-73
2022/05/07 14:22:32;;;;;;;5.45;3.53;;;;;;;;;;5074081;28;20094;-73
2022/05/07 14:25:00;;;;;;;10.05;4.15;;;;;;;;;;5085330;28;20387;-73